Raymond, Washington
Current Conditions -  °F | °C
As of 5:00 PM on Monday 26 Jan 2015 (Local Time) from KHQM Reporting Station
Haze Haze  
Wind Chill: 52°   Ceiling: 900
Heat Index: 52°   Visibility: 3mi
Dew Point: 52°   Wind: 9mph
Humidity: 100%   Direction: 210°SSW
Pressure: 29.97"   Gusts: NA
Location:  46.69°N, 123.73°W
Report Text: KHQM 270100Z AUTO 21008KT 3SM BR BKN009 OVC014 11/11 A2997 RMK AO2 RAE0054 CIG 006V013 P0000 T01110111
Loading
Personal Weather Stations






























Interactive Weather Map New forecast layout! Learn more

10-Day Weather Forecast

Advertisements
Track Severe Weather on mobile